createdAt,value
2023-03-10T00:02:11.185Z,-0.45
2023-03-10T00:07:04.007Z,-0.45
2023-03-10T00:11:56.989Z,-0.44
2023-03-10T00:16:49.815Z,-0.44
2023-03-10T00:21:42.626Z,-0.43
2023-03-10T00:26:36.014Z,-0.43
2023-03-10T00:31:31.378Z,-0.43
2023-03-10T00:36:29.667Z,-0.42
2023-03-10T00:41:27.984Z,-0.42
2023-03-10T00:46:21.674Z,-0.41
2023-03-10T00:51:14.568Z,-0.40
2023-03-10T00:56:11.428Z,-0.40
2023-03-10T01:01:08.182Z,-0.40
2023-03-10T01:06:02.419Z,-0.39
2023-03-10T01:10:55.709Z,-0.40
2023-03-10T01:15:49.023Z,-0.41
2023-03-10T01:20:42.789Z,-0.41
2023-03-10T01:25:37.670Z,-0.42
2023-03-10T01:30:30.555Z,-0.42
2023-03-10T01:35:23.331Z,-0.41
2023-03-10T01:40:19.947Z,-0.41
2023-03-10T01:45:15.534Z,-0.37
2023-03-10T01:50:13.937Z,-0.36
2023-03-10T01:55:10.392Z,-0.36
2023-03-10T02:00:09.264Z,-0.36
2023-03-10T02:05:09.378Z,-0.37
2023-03-10T02:10:05.759Z,-0.36
2023-03-10T02:14:59.522Z,-0.36
2023-03-10T02:19:58.578Z,-0.36
2023-03-10T02:24:59.098Z,-0.37
2023-03-10T02:30:18.978Z,-0.38
2023-03-10T02:35:13.306Z,-0.36
2023-03-10T02:40:29.910Z,-0.35
2023-03-10T02:45:23.841Z,-0.33
2023-03-10T02:50:19.264Z,-0.34
2023-03-10T02:55:19.668Z,-0.35
2023-03-10T03:00:13.984Z,-0.34
2023-03-10T03:05:09.175Z,-0.33
2023-03-10T03:10:02.153Z,-0.33
2023-03-10T03:14:55.597Z,-0.32
2023-03-10T03:19:52.124Z,-0.31
2023-03-10T03:24:47.436Z,-0.30
2023-03-10T03:29:42.758Z,-0.30
2023-03-10T03:34:36.486Z,-0.29
2023-03-10T03:39:32.005Z,-0.29
2023-03-10T03:44:27.007Z,-0.28
2023-03-10T03:49:21.294Z,-0.28
2023-03-10T03:54:14.778Z,-0.29
2023-03-10T03:59:08.414Z,-0.29
2023-03-10T04:04:01.899Z,-0.27
2023-03-10T04:08:55.108Z,-0.25
2023-03-10T04:13:49.181Z,-0.24
2023-03-10T04:18:42.913Z,-0.22
2023-03-10T04:23:37.512Z,-0.20
2023-03-10T04:28:32.612Z,-0.18
2023-03-10T04:33:25.761Z,-0.17
2023-03-10T04:38:19.309Z,-0.16
2023-03-10T04:43:12.758Z,-0.14
2023-03-10T04:48:06.031Z,-0.13
2023-03-10T04:53:02.147Z,-0.12
2023-03-10T04:57:56.211Z,-0.10
2023-03-10T05:02:49.375Z,-0.07
2023-03-10T05:07:43.054Z,-0.03
2023-03-10T05:12:36.209Z,0.03
2023-03-10T05:17:31.495Z,0.07
2023-03-10T05:22:27.909Z,0.13
2023-03-10T05:27:22.121Z,0.16
2023-03-10T05:32:15.590Z,0.21
2023-03-10T05:37:09.914Z,0.26
2023-03-10T05:42:03.243Z,0.29
2023-03-10T05:46:58.436Z,0.34
2023-03-10T05:51:53.466Z,0.42
2023-03-10T05:56:50.557Z,0.47
2023-03-10T06:01:54.492Z,0.50
2023-03-10T06:06:47.293Z,0.54
2023-03-10T06:11:40.174Z,0.58
2023-03-10T06:16:35.156Z,0.63
2023-03-10T06:21:29.649Z,0.69
2023-03-10T06:26:24.785Z,0.80
2023-03-10T06:31:21.340Z,0.93
2023-03-10T06:36:15.713Z,1.07
2023-03-10T06:41:09.011Z,1.22
2023-03-10T06:46:05.930Z,1.33
2023-03-10T06:50:59.184Z,1.39
2023-03-10T06:56:09.401Z,1.48
2023-03-10T07:01:02.298Z,1.60
2023-03-10T07:05:55.905Z,1.69
2023-03-10T07:10:50.609Z,1.95
2023-03-10T07:15:45.878Z,2.39
2023-03-10T07:20:41.909Z,2.72
2023-03-10T07:25:38.343Z,2.85
2023-03-10T07:30:31.318Z,3.01
2023-03-10T07:35:24.161Z,3.04
2023-03-10T07:40:17.543Z,3.03
2023-03-10T07:45:10.961Z,2.98
2023-03-10T07:50:03.978Z,3.05
2023-03-10T07:54:56.909Z,3.04
2023-03-10T07:59:49.806Z,3.07
2023-03-10T08:04:43.234Z,3.12
2023-03-10T08:09:36.940Z,3.21
2023-03-10T08:14:31.612Z,3.22
2023-03-10T08:19:25.774Z,3.25
2023-03-10T08:24:18.647Z,3.27
2023-03-10T08:29:11.463Z,3.32
2023-03-10T08:34:04.263Z,3.40
2023-03-10T08:38:59.222Z,3.34
2023-03-10T08:43:53.887Z,3.20
2023-03-10T08:48:47.404Z,3.14
2023-03-10T08:53:40.699Z,3.14
2023-03-10T08:58:34.337Z,3.17
2023-03-10T09:03:30.308Z,3.28
2023-03-10T09:08:27.018Z,3.52
2023-03-10T09:13:23.350Z,3.63
2023-03-10T09:18:17.190Z,3.68
2023-03-10T09:23:12.099Z,3.79
2023-03-10T09:28:05.555Z,3.92
2023-03-10T09:32:58.504Z,4.03
2023-03-10T09:37:51.504Z,4.07
2023-03-10T09:42:49.228Z,4.12
2023-03-10T09:48:26.311Z,4.27
2023-03-10T09:54:04.551Z,4.38
2023-03-10T09:59:11.294Z,4.20
2023-03-10T10:04:10.196Z,4.11
2023-03-10T10:09:13.981Z,4.15
2023-03-10T10:14:28.523Z,4.18
2023-03-10T10:19:25.324Z,4.34
2023-03-10T10:24:19.798Z,4.46
2023-03-10T10:29:18.300Z,4.49
2023-03-10T10:34:24.044Z,4.53
2023-03-10T10:39:41.525Z,4.70
2023-03-10T10:44:42.414Z,4.93
2023-03-10T10:49:41.209Z,5.22
2023-03-10T10:54:40.414Z,5.45
2023-03-10T10:59:35.989Z,5.55
2023-03-10T11:04:42.783Z,5.67
2023-03-10T11:09:36.698Z,5.83
2023-03-10T11:14:49.555Z,5.96
2023-03-10T11:19:58.275Z,6.13
2023-03-10T11:25:14.358Z,6.26
2023-03-10T11:30:16.393Z,6.52
2023-03-10T11:35:30.324Z,6.73
2023-03-10T11:40:38.538Z,6.81
2023-03-10T11:45:37.106Z,6.97
2023-03-10T11:50:40.574Z,7.27
2023-03-10T11:55:34.148Z,7.52
2023-03-10T12:00:40.847Z,7.62
2023-03-10T12:05:45.372Z,7.93
2023-03-10T12:10:42.045Z,8.32
2023-03-10T12:15:39.959Z,8.55
2023-03-10T12:20:34.559Z,9.01
2023-03-10T12:25:30.414Z,9.60
2023-03-10T12:30:56.558Z,9.72
2023-03-10T12:35:55.340Z,10.12
2023-03-10T12:40:49.756Z,10.00
2023-03-10T12:45:47.501Z,9.81
2023-03-10T12:50:57.034Z,10.08
2023-03-10T12:56:21.262Z,10.98
2023-03-10T13:01:18.561Z,11.12
2023-03-10T13:06:13.582Z,10.85
2023-03-10T13:11:14.857Z,10.84
2023-03-10T13:16:09.614Z,10.93
2023-03-10T13:21:02.954Z,10.87
2023-03-10T13:26:01.430Z,10.78
2023-03-10T13:31:10.534Z,10.73
2023-03-10T13:36:21.090Z,10.82
2023-03-10T13:41:14.070Z,10.86
2023-03-10T13:46:29.125Z,10.79
2023-03-10T13:51:32.109Z,10.67
2023-03-10T13:56:40.260Z,10.61
2023-03-10T14:01:36.134Z,10.57
2023-03-10T14:06:30.103Z,10.54
2023-03-10T14:11:47.112Z,10.50
2023-03-10T14:16:54.528Z,10.53
2023-03-10T14:22:00.316Z,10.50
2023-03-10T14:26:56.393Z,10.44
2023-03-10T14:31:52.810Z,10.35
2023-03-10T14:36:45.683Z,10.24
2023-03-10T14:41:39.174Z,10.16
2023-03-10T14:46:35.340Z,10.13
2023-03-10T14:51:35.535Z,10.08
2023-03-10T14:56:29.492Z,10.07
2023-03-10T15:01:23.311Z,10.05
2023-03-10T15:06:19.202Z,10.03
2023-03-10T15:11:13.838Z,10.01
2023-03-10T15:16:08.287Z,9.93
2023-03-10T15:21:02.627Z,9.84
2023-03-10T15:25:57.015Z,9.75
2023-03-10T15:30:50.191Z,9.62
2023-03-10T15:35:43.230Z,9.45
2023-03-10T15:40:36.860Z,9.31
2023-03-10T15:45:32.111Z,9.18
2023-03-10T15:50:25.346Z,9.02
2023-03-10T15:55:18.901Z,8.86
2023-03-10T16:00:13.779Z,8.73
2023-03-10T16:05:07.664Z,8.60
2023-03-10T16:10:00.690Z,8.48
2023-03-10T16:14:55.381Z,8.36
2023-03-10T16:19:48.523Z,8.24
2023-03-10T16:24:41.360Z,8.11
2023-03-10T16:29:34.920Z,7.99
2023-03-10T16:34:27.876Z,7.86
2023-03-10T16:39:20.681Z,7.75
2023-03-10T16:44:15.641Z,7.62
2023-03-10T16:49:08.788Z,7.53
2023-03-10T16:54:04.105Z,7.44
2023-03-10T16:58:58.004Z,7.35
2023-03-10T17:03:52.196Z,7.24
2023-03-10T17:08:45.557Z,7.13
2023-03-10T17:13:38.856Z,7.03
2023-03-10T17:18:31.996Z,6.96
2023-03-10T17:23:24.816Z,6.88
2023-03-10T17:28:17.605Z,6.81
2023-03-10T17:33:10.637Z,6.75
2023-03-10T17:38:03.831Z,6.67
2023-03-10T17:42:56.699Z,6.59
2023-03-10T17:47:50.665Z,6.49
2023-03-10T17:52:43.554Z,6.40
2023-03-10T17:57:36.341Z,6.30
2023-03-10T18:02:29.187Z,6.20
2023-03-10T18:07:22.183Z,6.09
2023-03-10T18:12:14.974Z,6.02
2023-03-10T18:17:07.781Z,5.94
2023-03-10T18:22:01.027Z,5.87
2023-03-10T18:26:53.833Z,5.83
2023-03-10T18:31:46.610Z,5.78
2023-03-10T18:36:39.429Z,5.74
2023-03-10T18:41:32.904Z,5.71
2023-03-10T18:46:25.886Z,5.67
2023-03-10T18:51:18.683Z,5.63
2023-03-10T18:56:11.524Z,5.59
2023-03-10T19:01:04.426Z,5.55
2023-03-10T19:05:57.661Z,5.52
2023-03-10T19:10:58.438Z,5.49
2023-03-10T19:15:51.659Z,5.46
2023-03-10T19:20:46.242Z,5.39
2023-03-10T19:25:39.242Z,5.32
2023-03-10T19:30:32.819Z,5.30
2023-03-10T19:35:25.736Z,5.28
2023-03-10T19:40:20.805Z,5.24
2023-03-10T19:45:19.167Z,5.21
2023-03-10T19:50:18.187Z,5.16
2023-03-10T19:55:16.424Z,5.08
2023-03-10T20:00:13.882Z,4.97
2023-03-10T20:05:07.275Z,4.87
2023-03-10T20:10:00.857Z,4.77
2023-03-10T20:14:58.744Z,4.72
2023-03-10T20:20:20.185Z,4.71
2023-03-10T20:25:19.882Z,4.67
2023-03-10T20:30:19.606Z,4.65
2023-03-10T20:35:14.698Z,4.63
2023-03-10T20:40:08.591Z,4.59
2023-03-10T20:45:02.653Z,4.55
2023-03-10T20:49:56.460Z,4.53
2023-03-10T20:54:49.373Z,4.54
2023-03-10T20:59:42.216Z,4.53
2023-03-10T21:04:35.073Z,4.50
2023-03-10T21:09:28.023Z,4.48
2023-03-10T21:14:20.804Z,4.44
2023-03-10T21:19:13.949Z,4.44
2023-03-10T21:24:07.067Z,4.45
2023-03-10T21:29:00.597Z,4.45
2023-03-10T21:33:53.514Z,4.43
2023-03-10T21:38:48.828Z,4.42
2023-03-10T21:43:42.517Z,4.44
2023-03-10T21:48:35.858Z,4.45
2023-03-10T21:53:29.909Z,4.46
2023-03-10T21:58:25.175Z,4.44
2023-03-10T22:03:18.409Z,4.42
2023-03-10T22:08:11.361Z,4.43
2023-03-10T22:13:04.510Z,4.43
2023-03-10T22:17:57.352Z,4.43
2023-03-10T22:22:50.526Z,4.40
2023-03-10T22:27:45.054Z,4.40
2023-03-10T22:32:38.197Z,4.39
2023-03-10T22:37:31.127Z,4.38
2023-03-10T22:42:23.913Z,4.39
2023-03-10T22:47:18.452Z,4.39
2023-03-10T22:52:11.731Z,4.40
2023-03-10T22:57:04.864Z,4.54
2023-03-10T23:01:57.779Z,4.63
2023-03-10T23:06:51.581Z,4.73
2023-03-10T23:11:45.516Z,4.97
2023-03-10T23:16:38.541Z,5.14
2023-03-10T23:21:31.525Z,5.27
2023-03-10T23:26:24.316Z,5.38
2023-03-10T23:31:17.343Z,5.52
2023-03-10T23:36:11.834Z,5.62
2023-03-10T23:41:05.313Z,5.71
2023-03-10T23:45:58.508Z,5.83
2023-03-10T23:50:52.128Z,5.95
2023-03-10T23:55:47.809Z,5.95
